Time;durP1;ratioP1;P1;durP2;ratioP2;P2;SDS_P1;SDS_P2;PMS_P1;PMS_P2;Temp;Humidity;BMP_temperature;BMP_pressure;BME280_temperature;BME280_humidity;BME280_pressure;Samples;Min_cycle;Max_cycle;Signal;HPM_P1;HPM_P2
2022/06/25 00:00:35;;;;;;;;;;;588.80;2432.00;;;;;;5072836;28;20282;-62
2022/06/25 00:03:00;;;;;;;;;;;564.10;2432.00;;;;;;5072585;28;20355;-62
2022/06/25 00:05:29;;;;;;;;;;;564.10;2432.00;;;;;;5072783;28;19995;-62
2022/06/25 00:07:57;;;;;;;;;;;564.00;2432.00;;;;;;5072791;28;19905;-62
2022/06/25 00:10:23;;;;;;;;;;;564.00;2432.00;;;;;;5072609;28;19904;-63
2022/06/25 00:12:49;;;;;;;;;;;564.00;2432.00;;;;;;5072685;28;19908;-64
2022/06/25 00:15:15;;;;;;;;;;;564.00;2432.00;;;;;;5072417;28;19908;-62
2022/06/25 00:17:41;;;;;;;;;;;564.00;2432.00;;;;;;5072106;28;19912;-63
2022/06/25 00:20:07;;;;;;;;;;;564.00;2432.00;;;;;;5072240;28;19904;-62
2022/06/25 00:22:32;;;;;;;;;;;563.90;2432.00;;;;;;5071956;28;19905;-62
2022/06/25 00:24:58;;;;;;;;;;;563.80;2432.00;;;;;;5072143;28;20346;-62
2022/06/25 00:27:24;;;;;;;;;;;563.80;2432.00;;;;;;5072297;28;19915;-62
2022/06/25 00:29:49;;;;;;;;;;;563.80;2432.00;;;;;;5071681;28;20420;-62
2022/06/25 00:32:15;;;;;;;;;;;563.80;2432.00;;;;;;5072085;28;19908;-62
2022/06/25 00:34:40;;;;;;;;;;;563.80;2432.00;;;;;;5071795;28;20293;-62
2022/06/25 00:37:06;;;;;;;;;;;563.70;2432.00;;;;;;5071815;28;19965;-63
2022/06/25 00:39:32;;;;;;;;;;;563.80;2432.00;;;;;;5071560;28;19912;-63
2022/06/25 00:41:58;;;;;;;;;;;563.70;2432.00;;;;;;5071910;28;20373;-62
2022/06/25 00:44:24;;;;;;;;;;;563.70;2432.00;;;;;;5072038;28;19908;-62
2022/06/25 00:46:49;;;;;;;;;;;563.70;2432.00;;;;;;5071853;28;20310;-62
2022/06/25 00:49:15;;;;;;;;;;;563.70;2432.00;;;;;;5071685;28;20282;-61
2022/06/25 00:51:41;;;;;;;;;;;563.70;2432.00;;;;;;5071445;28;19948;-62
2022/06/25 00:54:09;;;;;;;;;;;563.60;2432.00;;;;;;5071489;28;19905;-62
2022/06/25 00:56:39;;;;;;;;;;;563.60;2432.00;;;;;;5071589;28;20003;-61
2022/06/25 00:59:05;;;;;;;;;;;563.60;2432.00;;;;;;5071270;28;19916;-63
2022/06/25 01:01:35;;;;;;;;;;;563.60;2432.00;;;;;;5071264;28;20534;-62
2022/06/25 01:04:00;;;;;;;;;;;563.50;2432.00;;;;;;5071326;28;19904;-62
2022/06/25 01:06:28;;;;;;;;;;;563.40;2432.00;;;;;;5071318;28;19910;-63
2022/06/25 01:08:55;;;;;;;;;;;563.30;2432.00;;;;;;5071403;28;19904;-62
2022/06/25 01:11:21;;;;;;;;;;;563.30;2432.00;;;;;;5071130;28;19908;-62
2022/06/25 01:13:46;;;;;;;;;;;563.20;2432.00;;;;;;5071150;28;19983;-62
2022/06/25 01:16:12;;;;;;;;;;;563.20;2432.00;;;;;;5071064;28;19912;-61
2022/06/25 01:18:37;;;;;;;;;;;563.20;2432.00;;;;;;5071119;28;20041;-62
2022/06/25 01:21:03;;;;;;;;;;;563.20;2432.00;;;;;;5070852;28;19905;-62
2022/06/25 01:23:29;;;;;;;;;;;563.30;2432.00;;;;;;5070998;28;20361;-61
2022/06/25 01:25:55;;;;;;;;;;;563.30;2432.00;;;;;;5070942;28;19904;-62
2022/06/25 01:28:20;;;;;;;;;;;563.30;2432.00;;;;;;5070653;28;19920;-62
2022/06/25 01:30:46;;;;;;;;;;;563.20;2432.00;;;;;;5071026;28;19978;-63
2022/06/25 01:33:11;;;;;;;;;;;563.20;2432.00;;;;;;5070736;28;19904;-61
2022/06/25 01:35:37;;;;;;;;;;;563.20;2432.00;;;;;;5070755;28;20266;-62
2022/06/25 01:38:03;;;;;;;;;;;563.20;2432.00;;;;;;5070593;28;19951;-62
2022/06/25 01:40:28;;;;;;;;;;;563.20;2432.00;;;;;;5070981;28;19974;-64
2022/06/25 01:43:00;;;;;;;;;;;538.50;2406.40;;;;;;5071045;28;19912;-62
2022/06/25 01:45:36;;;;;;;;;;;538.50;2406.40;;;;;;5070762;28;19904;-62
2022/06/25 01:48:02;;;;;;;;;;;538.50;2406.40;;;;;;5070699;28;20282;-63
2022/06/25 01:50:27;;;;;;;;;;;538.40;2406.40;;;;;;5070705;28;20404;-62
2022/06/25 01:52:53;;;;;;;;;;;538.40;2406.40;;;;;;5070554;28;19904;-62
2022/06/25 01:55:19;;;;;;;;;;;538.30;2406.40;;;;;;5070408;28;19912;-62
2022/06/25 01:57:45;;;;;;;;;;;538.30;2406.40;;;;;;5070767;28;19912;-62
2022/06/25 02:00:12;;;;;;;;;;;538.20;2406.40;;;;;;5070240;28;19925;-62
2022/06/25 02:02:38;;;;;;;;;;;538.30;2406.40;;;;;;5070730;28;19911;-62
2022/06/25 02:05:04;;;;;;;;;;;538.30;2406.40;;;;;;5070386;28;19904;-62
2022/06/25 02:07:30;;;;;;;;;;;538.20;2406.40;;;;;;5069619;28;19912;-62
2022/06/25 02:09:55;;;;;;;;;;;538.10;2406.40;;;;;;5070760;28;19957;-62
2022/06/25 02:12:21;;;;;;;;;;;538.00;2406.40;;;;;;5070554;28;19912;-63
2022/06/25 02:14:46;;;;;;;;;;;538.00;2406.40;;;;;;5070466;28;20313;-62
2022/06/25 02:17:12;;;;;;;;;;;537.90;2406.40;;;;;;5070121;28;19966;-63
2022/06/25 02:19:37;;;;;;;;;;;537.90;2406.40;;;;;;5070344;28;19931;-62
2022/06/25 02:22:03;;;;;;;;;;;537.90;2406.40;;;;;;5070081;28;20350;-62
2022/06/25 02:24:29;;;;;;;;;;;537.90;2406.40;;;;;;5070103;28;19927;-62
2022/06/25 02:26:54;;;;;;;;;;;537.90;2406.40;;;;;;5070453;28;19943;-62
2022/06/25 02:29:20;;;;;;;;;;;537.90;2406.40;;;;;;5070146;28;20378;-62
2022/06/25 02:31:45;;;;;;;;;;;538.00;2406.40;;;;;;5070288;28;19918;-62
2022/06/25 02:34:11;;;;;;;;;;;538.00;2406.40;;;;;;5070051;28;19919;-62
2022/06/25 02:36:37;;;;;;;;;;;538.00;2406.40;;;;;;5070061;28;20321;-61
2022/06/25 02:39:02;;;;;;;;;;;538.10;2406.40;;;;;;5069818;28;20007;-63
2022/06/25 02:41:28;;;;;;;;;;;538.10;2406.40;;;;;;5070269;28;19924;-62
2022/06/25 02:43:53;;;;;;;;;;;538.10;2406.40;;;;;;5070206;28;19904;-63
2022/06/25 02:46:19;;;;;;;;;;;538.10;2406.40;;;;;;5070114;28;19912;-64
2022/06/25 02:48:44;;;;;;;;;;;538.10;2406.40;;;;;;5070193;28;19912;-62
2022/06/25 02:51:10;;;;;;;;;;;537.80;2406.40;;;;;;5070159;28;20374;-63
2022/06/25 02:53:35;;;;;;;;;;;537.90;2406.40;;;;;;5070101;28;20313;-63
2022/06/25 02:58:54;;;;;;;;;;;538.00;2406.40;;;;;;5070056;28;20357;-63
2022/06/25 03:01:20;;;;;;;;;;;538.00;2406.40;;;;;;5070142;28;19912;-64
2022/06/25 03:03:46;;;;;;;;;;;537.90;2406.40;;;;;;5069954;28;19995;-62
2022/06/25 03:06:12;;;;;;;;;;;537.90;2406.40;;;;;;5069800;28;19995;-62
2022/06/25 03:08:37;;;;;;;;;;;537.90;2406.40;;;;;;5070154;28;19927;-63
2022/06/25 03:11:03;;;;;;;;;;;538.00;2406.40;;;;;;5069742;28;20354;-63
2022/06/25 03:13:31;;;;;;;;;;;538.00;2406.40;;;;;;5070134;28;19912;-62
2022/06/25 03:15:57;;;;;;;;;;;538.10;2406.40;;;;;;5069758;28;19912;-64
2022/06/25 03:18:23;;;;;;;;;;;538.20;2406.40;;;;;;5070498;28;19991;-63
2022/06/25 03:20:50;;;;;;;;;;;538.20;2406.40;;;;;;5073409;28;19908;-63
2022/06/25 03:23:16;;;;;;;;;;;538.40;2406.40;;;;;;5073379;28;19954;-63
2022/06/25 03:25:42;;;;;;;;;;;538.50;2406.40;;;;;;5073098;28;20366;-63
2022/06/25 03:28:08;;;;;;;;;;;563.20;2432.00;;;;;;5073381;28;19961;-63
2022/06/25 03:30:33;;;;;;;;;;;563.20;2432.00;;;;;;5073026;28;19915;-62
2022/06/25 03:32:59;;;;;;;;;;;563.20;2432.00;;;;;;5073144;28;19911;-64
2022/06/25 03:35:24;;;;;;;;;;;563.30;2432.00;;;;;;5073180;28;19904;-64
2022/06/25 03:37:50;;;;;;;;;;;563.30;2432.00;;;;;;5073008;28;20351;-64
2022/06/25 03:40:16;;;;;;;;;;;538.50;2406.40;;;;;;5073056;28;19905;-63
2022/06/25 03:42:42;;;;;;;;;;;563.30;2432.00;;;;;;5072964;28;20003;-63
2022/06/25 03:45:08;;;;;;;;;;;563.40;2432.00;;;;;;5072907;28;19997;-63
2022/06/25 03:47:34;;;;;;;;;;;563.60;2432.00;;;;;;5072588;28;19904;-63
2022/06/25 03:49:59;;;;;;;;;;;563.70;2432.00;;;;;;5072730;28;20002;-65
2022/06/25 03:52:25;;;;;;;;;;;563.70;2432.00;;;;;;5072792;28;19936;-65
2022/06/25 03:54:51;;;;;;;;;;;563.90;2432.00;;;;;;5072673;28;19930;-64
2022/06/25 03:57:17;;;;;;;;;;;564.00;2432.00;;;;;;5072741;28;19923;-64
2022/06/25 03:59:42;;;;;;;;;;;564.00;2432.00;;;;;;5072238;28;19921;-62
2022/06/25 04:02:08;;;;;;;;;;;564.10;2432.00;;;;;;5072847;28;19922;-63
2022/06/25 04:04:33;;;;;;;;;;;564.10;2432.00;;;;;;5072596;28;19947;-64
2022/06/25 04:06:59;;;;;;;;;;;564.10;2432.00;;;;;;5072614;28;20297;-64
2022/06/25 04:09:24;;;;;;;;;;;564.10;2432.00;;;;;;5072592;28;19911;-63
2022/06/25 04:11:50;;;;;;;;;;;588.90;2432.00;;;;;;5072415;28;19904;-64
2022/06/25 04:14:15;;;;;;;;;;;589.10;2432.00;;;;;;5072381;28;19912;-63
2022/06/25 04:16:41;;;;;;;;;;;589.20;2432.00;;;;;;5072191;28;19969;-63
2022/06/25 04:19:07;;;;;;;;;;;589.40;2432.00;;;;;;5072505;28;19905;-63
2022/06/25 04:21:32;;;;;;;;;;;589.60;2432.00;;;;;;5072211;28;19950;-63
2022/06/25 04:23:58;;;;;;;;;;;589.70;2432.00;;;;;;5072140;28;19989;-64
2022/06/25 04:26:23;;;;;;;;;;;614.50;2432.00;;;;;;5071964;28;20379;-63
2022/06/25 04:29:04;;;;;;;;;;;614.70;2432.00;;;;;;5071988;28;19908;-64
2022/06/25 04:31:30;;;;;;;;;;;614.80;2432.00;;;;;;5071275;28;19908;-63
2022/06/25 04:33:57;;;;;;;;;;;665.70;2432.00;;;;;;5071967;28;20350;-63
2022/06/25 04:36:22;;;;;;;;;;;743.30;2124.80;;;;;;5071757;28;19958;-62
2022/06/25 04:38:49;;;;;;;;;;;820.10;1766.40;;;;;;5071994;28;19908;-64
2022/06/25 04:41:15;;;;;;;;;;;871.10;1587.20;;;;;;5071921;28;19908;-63
2022/06/25 04:43:41;;;;;;;;;;;921.80;1484.80;;;;;;5071652;28;19915;-63
2022/06/25 04:46:06;;;;;;;;;;;947.70;1382.40;;;;;;5071760;28;19912;-63
2022/06/25 04:48:32;;;;;;;;;;;973.20;1356.80;;;;;;5071764;28;20020;-63
2022/06/25 04:50:57;;;;;;;;;;;998.40;1331.20;;;;;;5071879;28;19905;-63
2022/06/25 04:53:23;;;;;;;;;;;999.30;1254.40;;;;;;5071639;28;20411;-63
2022/06/25 04:55:48;;;;;;;;;;;1024.30;1228.80;;;;;;5071859;28;20343;-63
2022/06/25 04:58:14;;;;;;;;;;;1024.60;1203.20;;;;;;5071309;28;19961;-63
2022/06/25 05:00:40;;;;;;;;;;;1049.80;1228.80;;;;;;5071417;28;20256;-64
2022/06/25 05:03:06;;;;;;;;;;;1050.20;1203.20;;;;;;5071624;28;19904;-64
2022/06/25 05:05:31;;;;;;;;;;;1075.20;1152.00;;;;;;5071267;28;19912;-64
2022/06/25 05:07:57;;;;;;;;;;;1049.90;1177.60;;;;;;5071448;28;20231;-64
2022/06/25 05:10:22;;;;;;;;;;;1049.60;1177.60;;;;;;5071434;28;19982;-63
2022/06/25 05:15:33;;;;;;;;;;;1050.40;1152.00;;;;;;5071319;28;20380;-63
2022/06/25 05:17:59;;;;;;;;;;;1100.90;1100.80;;;;;;5071267;28;19911;-64
2022/06/25 05:20:25;;;;;;;;;;;1100.80;1126.40;;;;;;5071471;28;19908;-62
2022/06/25 05:22:51;;;;;;;;;;;1100.90;1100.80;;;;;;5071144;28;20351;-64
2022/06/25 05:25:16;;;;;;;;;;;1101.40;1049.60;;;;;;5071056;28;20291;-63
2022/06/25 05:27:42;;;;;;;;;;;1126.80;1049.60;;;;;;5070979;28;19942;-64
2022/06/25 05:30:08;;;;;;;;;;;1152.00;1049.60;;;;;;5052985;28;19909;-63
2022/06/25 05:32:34;;;;;;;;;;;1126.90;1049.60;;;;;;5070875;28;19957;-64
2022/06/25 05:35:00;;;;;;;;;;;1152.50;1024.00;;;;;;5070655;28;19905;-64
2022/06/25 05:37:26;;;;;;;;;;;1152.10;998.40;;;;;;5070893;28;20003;-64
2022/06/25 05:39:51;;;;;;;;;;;1101.20;1049.60;;;;;;5070746;28;19939;-64
2022/06/25 05:42:17;;;;;;;;;;;1101.20;1049.60;;;;;;5070074;28;19911;-63
2022/06/25 05:44:45;;;;;;;;;;;1127.30;1024.00;;;;;;5070706;28;19911;-64
2022/06/25 05:47:11;;;;;;;;;;;1177.60;972.80;;;;;;5070682;28;19961;-64
2022/06/25 05:49:36;;;;;;;;;;;1203.70;921.60;;;;;;5070848;28;20364;-63
2022/06/25 05:52:02;;;;;;;;;;;1178.30;921.60;;;;;;5070626;28;19904;-65
2022/06/25 05:54:27;;;;;;;;;;;1126.80;1024.00;;;;;;5070614;28;19904;-64
2022/06/25 05:56:53;;;;;;;;;;;1152.00;1024.00;;;;;;5070645;28;19919;-64
2022/06/25 05:59:19;;;;;;;;;;;1075.60;1100.80;;;;;;5070495;28;19927;-64
2022/06/25 06:01:44;;;;;;;;;;;973.20;1228.80;;;;;;5070335;28;19909;-65
2022/06/25 06:04:10;;;;;;;;;;;896.20;1382.40;;;;;;5070424;28;20369;-64
2022/06/25 06:06:35;;;;;;;;;;;896.40;1382.40;;;;;;5069087;28;19915;-64
2022/06/25 06:09:01;;;;;;;;;;;999.00;1228.80;;;;;;5068745;28;20408;-63
2022/06/25 06:11:26;;;;;;;;;;;1024.40;1177.60;;;;;;5051353;28;19911;-64
2022/06/25 06:13:52;;;;;;;;;;;1050.00;1152.00;;;;;;5070166;28;19908;-64
2022/06/25 06:16:18;;;;;;;;;;;1101.30;1075.20;;;;;;5070444;28;19955;-64
2022/06/25 06:18:43;;;;;;;;;;;1126.70;1075.20;;;;;;5070254;28;19911;-65
2022/06/25 06:21:09;;;;;;;;;;;1050.20;1152.00;;;;;;5070484;28;19958;-64
2022/06/25 06:23:34;;;;;;;;;;;1075.90;1075.20;;;;;;5070161;28;19954;-64
2022/06/25 06:26:00;;;;;;;;;;;1127.30;1024.00;;;;;;5070424;28;19916;-64
2022/06/25 06:28:25;;;;;;;;;;;1126.90;1049.60;;;;;;5070142;28;20368;-65
2022/06/25 06:30:51;;;;;;;;;;;1178.10;947.20;;;;;;5070178;28;19912;-64
2022/06/25 06:33:17;;;;;;;;;;;1229.40;921.60;;;;;;5070218;28;19941;-64
2022/06/25 06:35:43;;;;;;;;;;;1229.70;921.60;;;;;;5069810;28;20014;-63
2022/06/25 06:38:08;;;;;;;;;;;1280.70;844.80;;;;;;5070146;28;19956;-64
2022/06/25 06:40:34;;;;;;;;;;;1306.00;844.80;;;;;;5070025;28;20343;-63
2022/06/25 06:43:00;;;;;;;;;;;1280.50;870.40;;;;;;5070090;28;19911;-64
2022/06/25 06:45:26;;;;;;;;;;;1254.40;896.00;;;;;;5070011;28;19904;-65
2022/06/25 06:47:52;;;;;;;;;;;1280.00;870.40;;;;;;5069990;28;20377;-64
2022/06/25 06:50:18;;;;;;;;;;;1203.60;921.60;;;;;;5070030;28;19904;-66
2022/06/25 06:52:43;;;;;;;;;;;1127.30;998.40;;;;;;5069823;28;19904;-65
2022/06/25 06:55:09;;;;;;;;;;;1126.40;1049.60;;;;;;5073790;28;19904;-65
2022/06/25 06:57:35;;;;;;;;;;;1152.50;1024.00;;;;;;5073773;28;20321;-63
2022/06/25 07:00:01;;;;;;;;;;;1229.00;947.20;;;;;;5073688;28;19959;-65
2022/06/25 07:02:27;;;;;;;;;;;1254.90;896.00;;;;;;5074206;28;20371;-65
2022/06/25 07:04:53;;;;;;;;;;;1305.60;844.80;;;;;;5073745;28;19939;-65
2022/06/25 07:07:18;;;;;;;;;;;1331.40;819.20;;;;;;5073760;28;20008;-64
2022/06/25 07:09:44;;;;;;;;;;;1356.90;844.80;;;;;;5073517;28;19950;-65
2022/06/25 07:12:09;;;;;;;;;;;1357.50;793.60;;;;;;5073678;28;19904;-65
2022/06/25 07:14:35;;;;;;;;;;;1382.40;819.20;;;;;;5073637;28;20393;-66
2022/06/25 07:17:01;;;;;;;;;;;1382.40;819.20;;;;;;5073232;28;19916;-65
2022/06/25 07:19:26;;;;;;;;;;;1383.30;793.60;;;;;;5073678;28;19904;-65
2022/06/25 07:21:54;;;;;;;;;;;1382.60;793.60;;;;;;5073498;28;19904;-66
2022/06/25 07:24:23;;;;;;;;;;;1254.90;870.40;;;;;;5073325;28;19905;-65
2022/06/25 07:26:48;;;;;;;;;;;1177.70;947.20;;;;;;5073293;28;19908;-64
2022/06/25 07:29:14;;;;;;;;;;;1178.10;921.60;;;;;;5072934;28;20358;-65
2022/06/25 07:31:40;;;;;;;;;;;1254.60;896.00;;;;;;5072972;28;19908;-66
2022/06/25 07:34:06;;;;;;;;;;;1280.70;844.80;;;;;;5073346;28;19908;-66
2022/06/25 07:36:32;;;;;;;;;;;1306.50;793.60;;;;;;5072866;28;19916;-66
2022/06/25 07:38:57;;;;;;;;;;;1356.80;793.60;;;;;;5072984;28;19905;-66
2022/06/25 07:41:23;;;;;;;;;;;1382.60;768.00;;;;;;5072871;28;19905;-68
2022/06/25 07:43:48;;;;;;;;;;;1383.30;768.00;;;;;;5073254;28;19970;-65
2022/06/25 07:46:14;;;;;;;;;;;1383.30;742.40;;;;;;5072595;28;20274;-67
2022/06/25 07:48:40;;;;;;;;;;;1383.30;716.80;;;;;;5072922;28;19905;-66
2022/06/25 07:53:51;;;;;;;;;;;1382.90;742.40;;;;;;5073198;28;19912;-66
2022/06/25 07:56:16;;;;;;;;;;;1383.30;742.40;;;;;;5072750;28;19916;-65
2022/06/25 07:58:42;;;;;;;;;;;1408.20;716.80;;;;;;5072320;28;19923;-66
2022/06/25 08:01:07;;;;;;;;;;;1408.40;691.20;;;;;;5072632;28;20367;-67
2022/06/25 08:03:33;;;;;;;;;;;1382.60;742.40;;;;;;5072494;28;19911;-65
2022/06/25 08:05:59;;;;;;;;;;;1357.20;716.80;;;;;;5071678;28;19905;-67
2022/06/25 08:08:25;;;;;;;;;;;1357.10;742.40;;;;;;5072790;28;19908;-65
2022/06/25 08:10:51;;;;;;;;;;;1331.60;716.80;;;;;;5072526;28;20381;-66
2022/06/25 08:13:17;;;;;;;;;;;1254.50;819.20;;;;;;5072536;28;20426;-67
2022/06/25 08:15:42;;;;;;;;;;;1228.90;844.80;;;;;;5072115;28;19952;-65
2022/06/25 08:18:08;;;;;;;;;;;1178.20;870.40;;;;;;5072426;28;20354;-65
2022/06/25 08:20:34;;;;;;;;;;;1127.30;921.60;;;;;;5072222;28;19904;-67
2022/06/25 08:22:59;;;;;;;;;;;1101.70;947.20;;;;;;5072181;28;19915;-68
2022/06/25 08:25:25;;;;;;;;;;;1100.90;998.40;;;;;;5072379;28;19904;-66
2022/06/25 08:27:52;;;;;;;;;;;1050.50;1024.00;;;;;;5071975;28;20290;-66
2022/06/25 08:30:18;;;;;;;;;;;1050.10;1049.60;;;;;;5072070;28;20354;-65
2022/06/25 08:32:44;;;;;;;;;;;1024.50;1024.00;;;;;;5072100;28;19911;-65
2022/06/25 08:35:09;;;;;;;;;;;998.60;1100.80;;;;;;5071890;28;19908;-67
2022/06/25 08:37:45;;;;;;;;;;;973.50;1100.80;;;;;;5071065;28;19963;-66
2022/06/25 08:40:11;;;;;;;;;;;973.00;1152.00;;;;;;5070000;28;20160;-65
2022/06/25 08:42:37;;;;;;;;;;;973.00;1126.40;;;;;;5070587;28;20409;-65
2022/06/25 08:45:03;;;;;;;;;;;973.10;1126.40;;;;;;5070117;28;20377;-66
2022/06/25 08:47:28;;;;;;;;;;;947.90;1152.00;;;;;;5070426;28;20387;-64
2022/06/25 08:49:54;;;;;;;;;;;947.40;1177.60;;;;;;5070178;28;19904;-66
2022/06/25 08:52:20;;;;;;;;;;;922.10;1203.20;;;;;;5069591;28;19909;-66
2022/06/25 08:54:46;;;;;;;;;;;947.20;1203.20;;;;;;5070234;28;19915;-65
2022/06/25 08:57:12;;;;;;;;;;;947.50;1177.60;;;;;;5069695;28;19917;-66
2022/06/25 08:59:38;;;;;;;;;;;947.80;1177.60;;;;;;5069904;28;20334;-65
2022/06/25 09:02:03;;;;;;;;;;;947.20;1152.00;;;;;;5069773;28;19958;-64
2022/06/25 09:04:29;;;;;;;;;;;922.10;1177.60;;;;;;5069411;28;19950;-65
2022/06/25 09:07:14;;;;;;;;;;;922.10;1203.20;;;;;;5069929;28;20004;-64
2022/06/25 09:09:44;;;;;;;;;;;947.30;1177.60;;;;;;5069512;28;19955;-65
2022/06/25 09:12:12;;;;;;;;;;;947.70;1177.60;;;;;;5069855;28;19959;-66
2022/06/25 09:14:38;;;;;;;;;;;947.90;1177.60;;;;;;5069732;28;19911;-64
2022/06/25 09:17:04;;;;;;;;;;;947.50;1126.40;;;;;;5068754;28;19916;-66
2022/06/25 09:19:37;;;;;;;;;;;921.60;1177.60;;;;;;5069533;28;20282;-66
2022/06/25 09:22:04;;;;;;;;;;;896.80;1152.00;;;;;;5069357;28;19908;-64
2022/06/25 09:24:50;;;;;;;;;;;896.90;1203.20;;;;;;5069313;28;20350;-65
2022/06/25 09:27:20;;;;;;;;;;;922.20;1203.20;;;;;;5069608;28;19908;-65
2022/06/25 09:29:49;;;;;;;;;;;947.40;1177.60;;;;;;5069519;28;19919;-64
2022/06/25 09:32:16;;;;;;;;;;;922.50;1203.20;;;;;;5068985;28;20406;-63
2022/06/25 09:34:42;;;;;;;;;;;947.30;1177.60;;;;;;5068963;28;20402;-62
2022/06/25 09:37:15;;;;;;;;;;;922.00;1177.60;;;;;;5069191;28;19947;-63
2022/06/25 09:39:41;;;;;;;;;;;922.20;1177.60;;;;;;5069019;28;19904;-62
2022/06/25 09:42:18;;;;;;;;;;;947.20;1177.60;;;;;;5069337;28;19962;-63
2022/06/25 09:44:44;;;;;;;;;;;947.40;1152.00;;;;;;5068609;28;19904;-65
2022/06/25 09:47:10;;;;;;;;;;;922.50;1152.00;;;;;;5068844;28;20013;-63
2022/06/25 09:49:35;;;;;;;;;;;947.20;1152.00;;;;;;5069203;28;19904;-63
2022/06/25 09:52:01;;;;;;;;;;;922.10;1203.20;;;;;;5069170;28;20021;-64
2022/06/25 09:54:27;;;;;;;;;;;922.00;1203.20;;;;;;5069269;28;19916;-70
2022/06/25 09:56:52;;;;;;;;;;;921.80;1203.20;;;;;;5068298;28;19919;-70
2022/06/25 09:59:18;;;;;;;;;;;922.00;1228.80;;;;;;5068815;28;20013;-64
2022/06/25 10:01:44;;;;;;;;;;;922.20;1228.80;;;;;;5068578;28;19909;-67
2022/06/25 10:04:10;;;;;;;;;;;922.00;1228.80;;;;;;5068772;28;19908;-66
2022/06/25 10:06:38;;;;;;;;;;;922.50;1177.60;;;;;;5068854;28;19915;-67
2022/06/25 10:09:05;;;;;;;;;;;922.00;1228.80;;;;;;5068275;28;19908;-62
2022/06/25 10:11:32;;;;;;;;;;;922.00;1254.40;;;;;;5070856;28;19952;-71
2022/06/25 10:13:58;;;;;;;;;;;896.80;1228.80;;;;;;5070721;28;19906;-70
2022/06/25 10:16:24;;;;;;;;;;;896.90;1228.80;;;;;;5070226;28;19920;-67
2022/06/25 10:18:51;;;;;;;;;;;896.90;1254.40;;;;;;5070295;28;20332;-63
2022/06/25 10:21:17;;;;;;;;;;;921.60;1254.40;;;;;;5070422;28;20278;-61
2022/06/25 10:23:43;;;;;;;;;;;896.90;1228.80;;;;;;5070072;28;19998;-61
2022/06/25 10:26:10;;;;;;;;;;;896.80;1228.80;;;;;;5070425;28;19904;-71
2022/06/25 10:28:36;;;;;;;;;;;921.60;1228.80;;;;;;5071496;28;19962;-71
2022/06/25 10:31:05;;;;;;;;;;;922.00;1203.20;;;;;;5074109;28;20007;-59
2022/06/25 10:33:35;;;;;;;;;;;921.70;1228.80;;;;;;5074162;28;19904;-70
2022/06/25 10:36:04;;;;;;;;;;;922.30;1203.20;;;;;;5074182;28;20002;-70
2022/06/25 10:38:30;;;;;;;;;;;921.90;1203.20;;;;;;5074318;28;19957;-63
2022/06/25 10:42:58;;;;;;;;;;;922.10;1203.20;;;;;;5073708;28;19909;-62
2022/06/25 10:43:46;;;;;;;;;;;922.00;1177.60;;;;;;5074125;28;19935;-70
2022/06/25 10:46:22;;;;;;;;;;;896.70;1203.20;;;;;;5073098;28;20368;-70
2022/06/25 10:48:52;;;;;;;;;;;896.20;1228.80;;;;;;5073935;28;19916;-70
2022/06/25 10:51:27;;;;;;;;;;;896.10;1228.80;;;;;;5073590;28;19954;-71
2022/06/25 10:53:53;;;;;;;;;;;896.70;1228.80;;;;;;5054023;28;20332;-70
2022/06/25 10:56:19;;;;;;;;;;;896.70;1203.20;;;;;;5054102;28;19908;-69
2022/06/25 10:58:47;;;;;;;;;;;896.70;1177.60;;;;;;5053732;28;19917;-68
2022/06/25 11:01:27;;;;;;;;;;;896.80;1177.60;;;;;;5053445;28;19920;-62
2022/06/25 11:03:57;;;;;;;;;;;896.70;1152.00;;;;;;5053914;28;19927;-70
2022/06/25 11:06:24;;;;;;;;;;;896.70;1152.00;;;;;;5053626;28;19948;-70
2022/06/25 11:08:51;;;;;;;;;;;896.80;1152.00;;;;;;5053579;28;19991;-64
2022/06/25 11:11:27;;;;;;;;;;;896.80;1152.00;;;;;;5053712;28;20282;-62
2022/06/25 11:13:53;;;;;;;;;;;896.70;1152.00;;;;;;5053814;28;19905;-64
2022/06/25 11:16:19;;;;;;;;;;;896.10;1152.00;;;;;;5053464;28;20291;-70
2022/06/25 11:18:45;;;;;;;;;;;871.10;1203.20;;;;;;5053612;28;19911;-61
2022/06/25 11:21:23;;;;;;;;;;;871.10;1177.60;;;;;;5053275;28;19925;-70
2022/06/25 11:23:49;;;;;;;;;;;870.90;1228.80;;;;;;5053408;28;19905;-71
2022/06/25 11:28:59;;;;;;;;;;;870.40;1280.00;;;;;;5053406;28;20533;-71
2022/06/25 11:31:26;;;;;;;;;;;845.70;1331.20;;;;;;5053347;28;20355;-68
2022/06/25 11:33:52;;;;;;;;;;;845.50;1356.80;;;;;;5053347;28;20012;-61
2022/06/25 11:36:19;;;;;;;;;;;845.10;1382.40;;;;;;5053160;28;19913;-70
2022/06/25 11:38:52;;;;;;;;;;;844.80;1459.20;;;;;;5052831;28;20286;-71
2022/06/25 11:41:19;;;;;;;;;;;794.50;1664.00;;;;;;5051689;28;19911;-70
2022/06/25 11:43:44;;;;;;;;;;;793.70;1792.00;;;;;;5052999;28;19995;-69
2022/06/25 11:46:10;;;;;;;;;;;768.80;1817.60;;;;;;5052765;28;20008;-63
2022/06/25 11:48:35;;;;;;;;;;;742.90;1817.60;;;;;;5051060;28;19905;-64
2022/06/25 11:51:02;;;;;;;;;;;717.10;1817.60;;;;;;5051279;28;19955;-60
2022/06/25 11:53:28;;;;;;;;;;;692.10;1868.80;;;;;;5051185;28;20344;-61
2022/06/25 11:56:03;;;;;;;;;;;717.00;2048.00;;;;;;5051121;28;19931;-60
2022/06/25 11:58:31;;;;;;;;;;;717.40;2048.00;;;;;;5050897;28;19924;-61
2022/06/25 12:00:57;;;;;;;;;;;717.60;1971.20;;;;;;5050609;28;20355;-63
2022/06/25 12:03:24;;;;;;;;;;;742.40;1971.20;;;;;;5050771;28;19909;-61
2022/06/25 12:05:50;;;;;;;;;;;742.80;1894.40;;;;;;5050744;28;19953;-61
2022/06/25 12:08:16;;;;;;;;;;;742.90;1996.80;;;;;;5050966;28;19905;-61
2022/06/25 12:10:42;;;;;;;;;;;768.10;1817.60;;;;;;5050671;28;19916;-65
2022/06/25 12:13:08;;;;;;;;;;;743.10;1945.60;;;;;;5050987;28;20306;-65
2022/06/25 12:15:35;;;;;;;;;;;742.40;1945.60;;;;;;5050110;28;19995;-63
2022/06/25 12:18:04;;;;;;;;;;;743.10;1894.40;;;;;;5050403;28;19912;-65
2022/06/25 12:20:30;;;;;;;;;;;768.20;1843.20;;;;;;5050373;28;19905;-65
2022/06/25 12:22:56;;;;;;;;;;;768.90;1766.40;;;;;;5050684;28;19994;-64
2022/06/25 12:25:23;;;;;;;;;;;768.90;1638.40;;;;;;5050598;28;19909;-65
2022/06/25 12:27:50;;;;;;;;;;;794.00;1715.20;;;;;;5050109;28;19909;-65
2022/06/25 12:30:22;;;;;;;;;;;819.30;1766.40;;;;;;5050432;28;20359;-64
2022/06/25 12:32:48;;;;;;;;;;;819.70;1689.60;;;;;;5050367;28;19905;-63
2022/06/25 12:35:19;;;;;;;;;;;820.10;1792.00;;;;;;5050583;28;19916;-62
2022/06/25 12:38:01;;;;;;;;;;;844.80;1792.00;;;;;;5050091;28;19916;-65
2022/06/25 12:40:27;;;;;;;;;;;844.90;1792.00;;;;;;5050196;28;20252;-63
2022/06/25 12:42:54;;;;;;;;;;;819.60;1715.20;;;;;;5050134;28;19905;-63
2022/06/25 12:45:20;;;;;;;;;;;819.60;1817.60;;;;;;5050214;28;19959;-63
2022/06/25 12:47:45;;;;;;;;;;;819.30;1843.20;;;;;;5050207;28;19990;-63
2022/06/25 12:50:24;;;;;;;;;;;794.50;1868.80;;;;;;5049929;28;20389;-64
2022/06/25 12:52:50;;;;;;;;;;;794.00;1843.20;;;;;;5049822;28;20351;-64
2022/06/25 12:55:20;;;;;;;;;;;794.00;1868.80;;;;;;5049841;28;19955;-64
2022/06/25 12:57:46;;;;;;;;;;;793.80;1920.00;;;;;;5050020;28;19940;-63
2022/06/25 13:00:25;;;;;;;;;;;793.70;1945.60;;;;;;5049743;28;19925;-63
2022/06/25 13:02:51;;;;;;;;;;;768.80;1894.40;;;;;;5049688;28;19958;-64
2022/06/25 13:05:17;;;;;;;;;;;768.40;1945.60;;;;;;5050220;28;19908;-63
2022/06/25 13:07:43;;;;;;;;;;;743.00;1971.20;;;;;;5051060;28;19947;-63
2022/06/25 13:10:09;;;;;;;;;;;743.30;1945.60;;;;;;5051736;28;19947;-63
2022/06/25 13:12:35;;;;;;;;;;;743.20;2048.00;;;;;;5051264;28;19904;-63
2022/06/25 13:15:03;;;;;;;;;;;743.30;2150.40;;;;;;5051287;28;19905;-63
2022/06/25 13:17:29;;;;;;;;;;;768.00;2252.80;;;;;;5050989;28;20363;-63
2022/06/25 13:19:55;;;;;;;;;;;743.20;2252.80;;;;;;5051008;28;19905;-63
2022/06/25 13:22:21;;;;;;;;;;;743.10;2304.00;;;;;;5050455;28;19911;-64
2022/06/25 13:24:46;;;;;;;;;;;743.00;2432.00;;;;;;5051032;28;19951;-62
2022/06/25 13:27:12;;;;;;;;;;;743.00;2432.00;;;;;;5050749;28;19908;-62
2022/06/25 13:29:37;;;;;;;;;;;742.80;2432.00;;;;;;5050882;28;20322;-63
2022/06/25 13:32:04;;;;;;;;;;;742.70;2432.00;;;;;;5050515;28;19969;-63
2022/06/25 13:34:29;;;;;;;;;;;717.60;2432.00;;;;;;5050843;28;19963;-63
2022/06/25 13:36:55;;;;;;;;;;;692.00;2432.00;;;;;;5050544;28;19970;-63
2022/06/25 13:39:21;;;;;;;;;;;692.10;2432.00;;;;;;5050646;28;19905;-63
2022/06/25 13:41:47;;;;;;;;;;;692.10;2432.00;;;;;;5050731;28;19912;-63
2022/06/25 13:44:12;;;;;;;;;;;692.10;2432.00;;;;;;5050439;28;19905;-63
2022/06/25 13:46:38;;;;;;;;;;;692.00;2432.00;;;;;;5050537;28;20350;-62